Flight Track Log - Related Links

Times and Time Zones

All times are in EDT time to prevent confusion due to time zone crossing. See the JZA8193 flight status page for this flight to view local times or setup timezone preferences in your user account.

Time Position Orientation Groundspeed Altitude Reporting Facility
EDT Latitude Longitude Course Direction KTS MPH feet Rate Location/Type
Wed 02:48:02 PM 50.7000 -120.4833 213° Southwest 130 150 2,700  Level Vancouver Center
Wed 02:49:02 PM 50.7000 -120.5500 270° West 130 150 4,100 1,500 Climbing Vancouver Center
Wed 02:50:02 PM 50.7000 -120.6167 270° West 150 173 5,700 1,650 Climbing Vancouver Center
Wed 02:51:02 PM 50.6667 -120.6667 224° Southwest 140 161 7,400 1,650 Climbing Vancouver Center
Wed 02:52:02 PM 50.6500 -120.6833 212° Southwest 140 161 9,000 1,500 Climbing Vancouver Center
Wed 02:53:00 PM 50.4314 -120.8186 213° Southwest  Level FlightAware Approximate
Wed 02:53:02 PM 50.6000 -120.7167 203° Southwest 140 161 10,400  Level Vancouver Center
Wed 02:54:02 PM 50.5667 -120.7833 232° Southwest 150 173 11,800 1,150 Climbing Vancouver Center
Wed 02:55:02 PM 50.5333 -120.8333 224° Southwest 170 196 12,700 900 Climbing Vancouver Center
Wed 02:56:02 PM 50.5000 -120.8500 198° South 180 207 13,600 1,050 Climbing Vancouver Center
Wed 02:57:02 PM 50.4500 -120.9167 220° Southwest 180 207 14,800 1,000 Climbing Vancouver Center
Wed 02:58:02 PM 50.4167 -120.9667 224° Southwest 180 207 15,600 400 Climbing Vancouver Center
Wed 03:00:02 PM 50.3167 -121.0833 217° Southwest 210 242 16,000 133 Climbing Vancouver Center
Wed 03:01:02 PM 50.2833 -121.1333 224° Southwest 220 253 16,000  Level Vancouver Center
Wed 03:02:02 PM 50.2333 -121.1833 213° Southwest 230 265 16,000  Level Vancouver Center
Wed 03:03:02 PM 50.1833 -121.2500 221° Southwest 240 276 16,000  Level Vancouver Center
Wed 03:04:02 PM 50.1167 -121.3333 219° Southwest 250 288 16,000 100 Level Vancouver Center
Wed 03:05:02 PM 50.0667 -121.3833 213° Southwest 250 288 16,200 100 Climbing Vancouver Center
Wed 03:06:02 PM 50.0167 -121.4667 227° Southwest 250 288 16,200 -150 Level Vancouver Center
Wed 03:07:02 PM 49.9667 -121.5167 213° Southwest 240 276 15,900 -400 Descending Vancouver Center
Wed 03:08:02 PM 49.9000 -121.6000 219° Southwest 250 288 15,400 -450 Descending Vancouver Center
Wed 03:09:02 PM 49.8500 -121.6833 227° Southwest 260 299 15,000 -400 Descending Vancouver Center
Wed 03:10:02 PM 49.8000 -121.7500 221° Southwest 260 299 14,600 -300 Descending Vancouver Center
Wed 03:11:02 PM 49.7500 -121.8333 227° Southwest 260 299 14,400 -303 Descending Vancouver Center
Wed 03:12:01 PM 49.7000 -121.9167 227° Southwest 260 299 14,000 -300 Descending Vancouver Center
Wed 03:13:02 PM 49.6333 -121.9667 206° Southwest 250 288 13,800 -298 Descending Vancouver Center
Wed 03:14:02 PM 49.6000 -122.0500 238° Southwest 250 288 13,400 -400 Descending Vancouver Center
Wed 03:15:02 PM 49.5500 -122.1333 227° Southwest 250 288 13,000 -450 Descending Vancouver Center
Wed 03:16:02 PM 49.5000 -122.2000 221° Southwest 260 299 12,500 -504 Descending Vancouver Center
Wed 03:17:01 PM 49.4333 -122.2833 219° Southwest 260 299 12,000 -605 Descending Vancouver Center
Wed 03:18:01 PM 49.3833 -122.3667 227° Southwest 270 311 11,300 -650 Descending Vancouver Center
Wed 03:19:01 PM 49.3833 -122.4667 270° West 250 288 10,700 -600 Descending Vancouver Center
Wed 03:20:01 PM 49.3667 -122.5500 253° West 230 265 10,100 -700 Descending Vancouver Center
Wed 03:21:01 PM 49.3167 -122.6000 213° Southwest 230 265 9,300 -1,150 Descending Vancouver Center
Wed 03:22:01 PM 49.2500 -122.6167 189° South 230 265 7,800 -1,400 Descending Vancouver Center
Wed 03:23:01 PM 49.1833 -122.6167 180° South 230 265 6,500 -1,100 Descending Vancouver Center
Wed 03:24:01 PM 49.1500 -122.6833 233° Southwest 210 242 5,600 -850 Descending Vancouver Center
Wed 03:25:01 PM 49.1333 -122.7833 256° West 210 242 4,800 -900 Descending Vancouver Center
Wed 03:26:01 PM 49.1500 -122.8500 291° West 210 242 3,800 -1,050 Descending Vancouver Center
Wed 03:27:01 PM 49.1500 -122.9500 270° West 200 230 2,700 -900 Descending Vancouver Center
Wed 03:28:01 PM 49.1667 -123.0000 297° West 170 196 2,000 -700 Descending Vancouver Center
Wed 03:29:01 PM 49.1667 -123.0833 270° West 140 161 1,300 -750 Descending Vancouver Center
Wed 03:30:01 PM 49.1833 -123.1167 307° West 120 138 500 -800 Descending Vancouver Center

Login

Don't have an account? Register now (free) for customized features, flight alerts, and more!